Terminal Aerodrome Forecast
Issued by NWS

Home | Current Version | Previous Version | Graphics & Text | Print | Product List | Glossary On
Versions: 1 2 3 4 5 6 7 8 9 10 11 12
000
FTUS43 KICT 241124
TAFHUT
TAF
KHUT 241124Z 2412/2512 34013KT P6SM SCT025 BKN070
     FM241400 32013KT P6SM SCT070
     FM242100 27010KT P6SM SKC
     FM250100 19007KT P6SM SCT200=

USA.gov is the U.S. government's official web portal to all federal, state and local government web resources and services.